createdAt,value
2019-01-15T00:02:58.643Z,0.97
2019-01-15T00:06:14.574Z,1.00
2019-01-15T00:09:30.574Z,0.83
2019-01-15T00:12:46.265Z,0.70
2019-01-15T00:16:01.541Z,0.90
2019-01-15T00:19:17.114Z,0.90
2019-01-15T00:22:32.889Z,0.87
2019-01-15T00:25:48.763Z,0.80
2019-01-15T00:29:04.822Z,1.00
2019-01-15T00:32:21.010Z,1.00
2019-01-15T00:35:37.128Z,0.90
2019-01-15T00:38:52.810Z,0.97
2019-01-15T00:42:15.038Z,0.90
2019-01-15T00:45:53.761Z,0.80
2019-01-15T00:48:57.051Z,0.80
2019-01-15T00:52:19.734Z,0.90
2019-01-15T00:55:42.432Z,0.83
2019-01-15T00:58:57.899Z,0.80
2019-01-15T01:02:13.619Z,0.83
2019-01-15T01:05:29.238Z,0.80
2019-01-15T01:08:44.970Z,0.80
2019-01-15T01:12:00.634Z,0.80
2019-01-15T01:15:16.606Z,0.90
2019-01-15T01:18:32.423Z,0.90
2019-01-15T01:21:48.439Z,0.90
2019-01-15T01:25:04.383Z,0.90
2019-01-15T01:28:20.355Z,0.87
2019-01-15T01:31:36.432Z,1.27
2019-01-15T01:34:52.403Z,1.07
2019-01-15T01:38:07.602Z,1.00
2019-01-15T01:41:23.533Z,1.03
2019-01-15T01:44:39.159Z,0.83
2019-01-15T01:47:54.701Z,0.80
2019-01-15T01:51:10.454Z,0.90
2019-01-15T01:54:26.367Z,0.83
2019-01-15T01:57:42.234Z,1.13
2019-01-15T02:00:57.866Z,1.03
2019-01-15T02:04:11.489Z,0.80
2019-01-15T02:07:34.161Z,0.90
2019-01-15T02:10:49.617Z,0.80
2019-01-15T02:14:05.719Z,1.13
2019-01-15T02:17:20.994Z,0.80
2019-01-15T02:20:36.877Z,1.00
2019-01-15T02:23:52.934Z,0.93
2019-01-15T02:27:10.171Z,0.80
2019-01-15T02:30:25.420Z,0.90
2019-01-15T02:33:39.031Z,0.97
2019-01-15T02:36:54.488Z,0.90
2019-01-15T02:40:10.580Z,1.00
2019-01-15T02:43:26.502Z,1.20
2019-01-15T02:46:42.476Z,1.20
2019-01-15T02:49:57.638Z,0.93
2019-01-15T02:53:13.022Z,1.20
2019-01-15T02:56:28.867Z,0.97
2019-01-15T02:59:44.817Z,1.13
2019-01-15T03:03:00.849Z,1.10
2019-01-15T03:06:16.058Z,1.23
2019-01-15T03:09:31.381Z,1.23
2019-01-15T03:12:55.097Z,1.20
2019-01-15T03:16:06.383Z,1.10
2019-01-15T03:19:22.229Z,1.10
2019-01-15T03:22:37.750Z,1.03
2019-01-15T03:25:53.009Z,1.33
2019-01-15T03:29:08.878Z,1.30
2019-01-15T03:32:24.422Z,1.53
2019-01-15T03:35:27.759Z,0.90
2019-01-15T03:38:50.443Z,0.90
2019-01-15T03:41:53.696Z,1.00
2019-01-15T03:45:16.388Z,0.90
2019-01-15T03:48:39.072Z,1.10
2019-01-15T03:51:54.823Z,0.93
2019-01-15T03:55:10.827Z,0.90
2019-01-15T03:58:26.618Z,1.30
2019-01-15T04:01:42.514Z,1.23
2019-01-15T04:04:58.393Z,1.07
2019-01-15T04:11:45.075Z,1.27
2019-01-15T04:15:01.063Z,0.93
2019-01-15T04:18:17.040Z,0.83
2019-01-15T04:21:33.139Z,1.10
2019-01-15T04:24:48.330Z,1.10
2019-01-15T04:28:04.440Z,0.90
2019-01-15T04:31:20.447Z,1.00
2019-01-15T04:34:36.353Z,1.20
2019-01-15T04:37:52.355Z,1.00
2019-01-15T04:41:06.072Z,1.20
2019-01-15T04:44:28.764Z,1.30
2019-01-15T04:47:44.102Z,1.30
2019-01-15T04:50:59.270Z,1.20
2019-01-15T04:54:14.438Z,1.20
2019-01-15T04:57:29.728Z,1.33
2019-01-15T05:00:45.533Z,1.10
2019-01-15T05:04:01.554Z,1.30
2019-01-15T05:07:16.761Z,1.23
2019-01-15T05:10:32.908Z,1.20
2019-01-15T05:13:48.206Z,1.10
2019-01-15T05:17:03.803Z,1.10
2019-01-15T05:20:19.643Z,1.17
2019-01-15T05:23:35.319Z,1.00
2019-01-15T05:26:51.246Z,1.10
2019-01-15T05:30:07.068Z,1.27
2019-01-15T05:33:22.931Z,1.20
2019-01-15T05:36:26.194Z,1.37
2019-01-15T05:39:48.646Z,1.17
2019-01-15T05:43:04.378Z,1.30
2019-01-15T05:46:20.440Z,1.27
2019-01-15T05:49:36.348Z,1.17
2019-01-15T05:52:52.358Z,1.17
2019-01-15T05:56:09.467Z,1.20
2019-01-15T05:59:23.246Z,1.37
2019-01-15T06:02:38.893Z,1.30
2019-01-15T06:05:54.797Z,1.30
2019-01-15T06:09:10.041Z,1.10
2019-01-15T06:12:26.095Z,1.40
2019-01-15T06:15:41.995Z,1.10
2019-01-15T06:18:57.695Z,1.40
2019-01-15T06:22:13.843Z,1.30
2019-01-15T06:25:29.972Z,1.20
2019-01-15T06:28:46.087Z,1.10
2019-01-15T06:32:01.750Z,1.37
2019-01-15T06:35:17.770Z,1.30
2019-01-15T06:38:33.506Z,1.10
2019-01-15T06:41:49.375Z,1.10
2019-01-15T06:45:05.211Z,1.00
2019-01-15T06:48:20.488Z,1.37
2019-01-15T06:51:36.390Z,1.07
2019-01-15T06:54:52.095Z,1.10
2019-01-15T06:58:07.703Z,1.27
2019-01-15T07:01:23.783Z,1.03
2019-01-15T07:04:43.738Z,1.13
2019-01-15T07:07:56.005Z,1.00
2019-01-15T07:11:12.103Z,1.10
2019-01-15T07:14:27.922Z,1.20
2019-01-15T07:17:43.165Z,1.20
2019-01-15T07:20:58.402Z,1.00
2019-01-15T07:24:14.447Z,1.13
2019-01-15T07:27:30.249Z,1.37
2019-01-15T07:30:45.070Z,1.10
2019-01-15T07:34:00.290Z,1.20
2019-01-15T07:37:16.266Z,1.40
2019-01-15T07:40:32.081Z,1.10
2019-01-15T07:43:48.239Z,1.30
2019-01-15T07:47:04.275Z,0.90
2019-01-15T07:50:20.330Z,1.00
2019-01-15T07:53:36.392Z,1.30
2019-01-15T07:56:52.456Z,1.00
2019-01-15T08:00:27.503Z,0.93
2019-01-15T08:03:42.750Z,1.10
2019-01-15T08:06:58.065Z,1.10
2019-01-15T08:10:12.993Z,1.00
2019-01-15T08:13:26.741Z,1.37
2019-01-15T08:16:49.438Z,1.40
2019-01-15T08:20:05.054Z,1.20
2019-01-15T08:23:20.989Z,1.00
2019-01-15T08:26:36.902Z,1.20
2019-01-15T08:29:53.083Z,1.47
2019-01-15T08:33:08.885Z,1.10
2019-01-15T08:36:24.700Z,1.10
2019-01-15T08:39:40.779Z,1.30
2019-01-15T08:42:56.730Z,1.40
2019-01-15T08:46:12.042Z,1.30
2019-01-15T08:49:27.933Z,1.03
2019-01-15T08:52:43.690Z,1.10
2019-01-15T08:55:59.615Z,0.93
2019-01-15T08:59:15.506Z,1.30
2019-01-15T09:02:33.532Z,1.20
2019-01-15T09:05:48.956Z,1.20
2019-01-15T09:09:04.846Z,1.20
2019-01-15T09:12:21.002Z,1.10
2019-01-15T09:15:37.172Z,1.00
2019-01-15T09:18:53.011Z,0.93
2019-01-15T09:22:06.663Z,1.03
2019-01-15T09:25:29.345Z,1.37
2019-01-15T09:28:44.736Z,0.90
2019-01-15T09:32:00.596Z,1.37
2019-01-15T09:35:16.587Z,1.30
2019-01-15T09:38:32.747Z,1.40
2019-01-15T09:41:46.266Z,1.00
2019-01-15T09:45:01.615Z,1.10
2019-01-15T09:48:17.604Z,1.00
2019-01-15T09:51:33.651Z,1.20
2019-01-15T09:54:49.671Z,1.40
2019-01-15T09:58:04.989Z,1.00
2019-01-15T10:01:20.919Z,1.10
2019-01-15T10:04:36.098Z,1.20
2019-01-15T10:07:51.330Z,1.13
2019-01-15T10:11:07.362Z,1.20
2019-01-15T10:14:23.382Z,1.07
2019-01-15T10:17:39.427Z,1.30
2019-01-15T10:20:55.282Z,1.20
2019-01-15T10:24:10.744Z,1.10
2019-01-15T10:27:26.283Z,1.23
2019-01-15T10:34:05.345Z,1.07
2019-01-15T10:37:20.641Z,1.20
2019-01-15T10:40:35.978Z,1.03
2019-01-15T10:43:52.426Z,1.43
2019-01-15T10:47:07.992Z,1.53
2019-01-15T10:50:24.098Z,1.10
2019-01-15T10:53:40.133Z,1.20
2019-01-15T10:56:56.075Z,1.30
2019-01-15T11:00:12.098Z,1.27
2019-01-15T11:03:27.705Z,1.10
2019-01-15T11:06:43.778Z,1.00
2019-01-15T11:09:59.870Z,1.00
2019-01-15T11:13:16.855Z,1.03
2019-01-15T11:16:32.770Z,1.13
2019-01-15T11:19:48.879Z,1.00
2019-01-15T11:23:04.677Z,1.03
2019-01-15T11:26:20.566Z,0.80
2019-01-15T11:29:36.517Z,1.10
2019-01-15T11:32:52.510Z,1.20
2019-01-15T11:36:08.435Z,1.10
2019-01-15T11:39:24.270Z,1.10
2019-01-15T11:42:39.511Z,1.30
2019-01-15T11:45:54.707Z,1.10
2019-01-15T11:49:10.894Z,1.03
2019-01-15T11:52:27.056Z,1.03
2019-01-15T11:55:42.447Z,1.17
2019-01-15T11:58:57.870Z,1.07
2019-01-15T12:02:22.002Z,0.93
2019-01-15T12:05:51.742Z,0.93
2019-01-15T12:09:26.475Z,1.10
2019-01-15T12:16:03.958Z,1.00
2019-01-15T12:19:24.487Z,0.93
2019-01-15T12:22:59.022Z,1.00
2019-01-15T12:26:33.695Z,1.10
2019-01-15T12:29:50.834Z,1.33
2019-01-15T12:33:25.459Z,1.00
2019-01-15T12:36:44.979Z,1.10
2019-01-15T12:40:02.195Z,1.13
2019-01-15T12:43:36.834Z,0.90
2019-01-15T12:46:54.139Z,1.20
2019-01-15T12:50:11.067Z,1.10
2019-01-15T12:53:28.938Z,1.20
2019-01-15T12:57:03.488Z,1.27
2019-01-15T13:00:39.330Z,1.10
2019-01-15T13:03:56.482Z,1.30
2019-01-15T13:07:13.452Z,1.40
2019-01-15T13:10:30.391Z,1.20
2019-01-15T13:13:48.154Z,1.30
2019-01-15T13:17:22.673Z,1.20
2019-01-15T13:20:39.855Z,1.10
2019-01-15T13:23:55.091Z,1.30
2019-01-15T13:27:30.095Z,1.47
2019-01-15T13:30:52.585Z,1.10
2019-01-15T13:34:34.463Z,1.47
2019-01-15T13:37:52.078Z,1.10
2019-01-15T13:44:55.482Z,1.13
2019-01-15T13:48:15.516Z,1.10
2019-01-15T13:51:35.646Z,1.20
2019-01-15T13:55:10.639Z,1.20
2019-01-15T13:58:45.555Z,1.17
2019-01-15T14:02:02.623Z,1.17
2019-01-15T14:05:37.251Z,1.10
2019-01-15T14:08:54.477Z,1.00
2019-01-15T14:12:30.047Z,1.00
2019-01-15T14:16:04.507Z,1.30
2019-01-15T14:19:21.638Z,1.20
2019-01-15T14:22:38.787Z,1.20
2019-01-15T14:26:13.464Z,1.30
2019-01-15T14:29:33.359Z,1.40
2019-01-15T14:36:50.747Z,1.40
2019-01-15T14:40:25.511Z,1.63
2019-01-15T14:47:45.659Z,1.30
2019-01-15T14:51:02.932Z,1.47
2019-01-15T14:54:27.761Z,1.67
2019-01-15T14:57:41.543Z,1.50
2019-01-15T15:04:33.426Z,1.47
2019-01-15T15:07:56.361Z,1.87
2019-01-15T15:11:13.315Z,1.70
2019-01-15T15:14:37.637Z,1.50
2019-01-15T15:21:27.990Z,1.50
2019-01-15T15:25:03.950Z,1.40
2019-01-15T15:31:59.240Z,1.57
2019-01-15T15:38:51.331Z,1.97
2019-01-15T15:42:08.343Z,1.70
2019-01-15T15:45:31.098Z,1.50
2019-01-15T15:48:50.815Z,1.40
2019-01-15T15:52:26.141Z,1.60
2019-01-15T15:55:43.429Z,1.20
2019-01-15T15:59:04.033Z,1.87
2019-01-15T16:02:39.294Z,1.57
2019-01-15T16:06:14.207Z,1.40
2019-01-15T16:09:48.955Z,1.40
2019-01-15T16:13:12.163Z,1.30
2019-01-15T16:16:32.380Z,1.40
2019-01-15T16:19:54.834Z,1.53
2019-01-15T16:23:36.725Z,1.50
2019-01-15T16:30:15.828Z,1.50
2019-01-15T16:37:08.651Z,1.50
2019-01-15T16:40:50.528Z,1.30
2019-01-15T16:44:25.149Z,1.40
2019-01-15T16:47:47.698Z,1.53
2019-01-15T16:54:54.131Z,1.37
2019-01-15T16:58:16.731Z,1.50
2019-01-15T17:05:06.534Z,1.50
2019-01-15T17:08:23.679Z,1.40
2019-01-15T17:11:59.235Z,1.10
2019-01-15T17:15:16.109Z,1.60
2019-01-15T17:18:35.762Z,1.47
2019-01-15T17:21:52.639Z,1.50
2019-01-15T17:25:10.464Z,1.20
2019-01-15T17:28:34.711Z,1.40
2019-01-15T17:31:59.034Z,1.30
2019-01-15T17:35:21.491Z,1.10
2019-01-15T17:39:03.382Z,1.33
2019-01-15T17:42:25.836Z,1.37
2019-01-15T17:46:07.723Z,1.43
2019-01-15T17:59:48.907Z,1.47
2019-01-15T18:03:24.020Z,1.20
2019-01-15T18:06:41.150Z,1.37
2019-01-15T18:13:16.386Z,1.10
2019-01-15T18:16:33.478Z,1.30
2019-01-15T18:20:08.002Z,1.50
2019-01-15T18:23:42.752Z,1.40
2019-01-15T18:26:59.836Z,1.07
2019-01-15T18:30:23.907Z,1.50
2019-01-15T18:37:28.960Z,1.30
2019-01-15T18:40:51.415Z,1.33
2019-01-15T18:44:33.352Z,1.30
2019-01-15T18:51:25.241Z,1.20
2019-01-15T18:54:49.563Z,1.20
2019-01-15T18:58:24.542Z,1.30
2019-01-15T19:02:02.601Z,1.40
2019-01-15T19:05:19.873Z,1.30
2019-01-15T19:08:39.623Z,1.30
2019-01-15T19:11:59.196Z,1.30
2019-01-15T19:19:03.569Z,1.13
2019-01-15T19:22:45.453Z,1.10
2019-01-15T19:26:02.702Z,1.20
2019-01-15T19:29:37.370Z,1.20
2019-01-15T19:33:12.206Z,1.20
2019-01-15T19:40:18.086Z,1.30
2019-01-15T19:43:33.339Z,1.30
2019-01-15T19:50:46.940Z,1.00
2019-01-15T19:54:28.827Z,1.27
2019-01-15T19:58:10.693Z,1.20
2019-01-15T20:01:33.125Z,1.30
2019-01-15T20:05:15.082Z,1.60
2019-01-15T20:08:32.621Z,1.43
2019-01-15T20:15:45.886Z,1.30
2019-01-15T20:19:27.778Z,1.30
2019-01-15T20:22:45.356Z,1.30
2019-01-15T20:26:05.242Z,1.10
2019-01-15T20:32:52.151Z,1.13
2019-01-15T20:36:09.604Z,1.20
2019-01-15T20:39:44.670Z,0.90
2019-01-15T20:43:01.563Z,1.13
2019-01-15T20:50:06.752Z,1.00
2019-01-15T20:56:21.815Z,1.13
2019-01-15T20:59:44.258Z,1.07
2019-01-15T21:03:00.984Z,1.03
2019-01-15T21:06:42.859Z,1.00
2019-01-15T21:17:04.482Z,1.00
2019-01-15T21:20:38.948Z,1.10
2019-01-15T21:24:14.248Z,1.03
2019-01-15T21:27:48.926Z,1.23
2019-01-15T21:31:08.755Z,1.23
2019-01-15T21:37:54.601Z,1.10
2019-01-15T21:41:29.160Z,1.27
2019-01-15T21:45:04.152Z,1.10
2019-01-15T21:48:21.583Z,1.40
2019-01-15T21:55:23.356Z,1.10
2019-01-15T21:58:40.300Z,1.10
2019-01-15T22:02:15.004Z,1.00
2019-01-15T22:09:05.608Z,1.10
2019-01-15T22:12:47.559Z,1.13
2019-01-15T22:16:22.163Z,0.83
2019-01-15T22:19:39.483Z,1.07
2019-01-15T22:23:14.119Z,1.00
2019-01-15T22:26:34.856Z,1.13
2019-01-15T22:30:09.461Z,1.10
2019-01-15T22:36:48.573Z,1.10
2019-01-15T22:40:30.449Z,1.23
2019-01-15T22:44:05.522Z,1.00
2019-01-15T22:50:42.615Z,1.00
2019-01-15T22:54:05.055Z,1.07
2019-01-15T22:57:27.498Z,1.10
2019-01-15T23:08:00.987Z,1.00
2019-01-15T23:14:45.977Z,0.97
2019-01-15T23:21:51.380Z,1.00
2019-01-15T23:25:26.671Z,1.00
2019-01-15T23:29:02.307Z,0.90
2019-01-15T23:36:19.459Z,1.00
2019-01-15T23:39:54.236Z,1.00
2019-01-15T23:43:28.769Z,0.90
2019-01-15T23:46:45.775Z,1.10
2019-01-15T23:53:37.219Z,1.00
2019-01-15T23:56:57.295Z,1.00
